sensor_id;sensor_type;location;lat;lon;timestamp;P1;durP1;ratioP1;P2;durP2;ratioP2
50757;SDS011;36732;47.980;11.652;2023-08-30T00:00:47;2.42;;;2.22;;
50757;SDS011;36732;47.980;11.652;2023-08-30T00:03:13;2.90;;;2.38;;
50757;SDS011;36732;47.980;11.652;2023-08-30T00:05:39;8.55;;;2.92;;
50757;SDS011;36732;47.980;11.652;2023-08-30T00:08:05;3.25;;;2.63;;
50757;SDS011;36732;47.980;11.652;2023-08-30T00:10:31;2.67;;;2.47;;
50757;SDS011;36732;47.980;11.652;2023-08-30T00:12:57;3.67;;;2.45;;
50757;SDS011;36732;47.980;11.652;2023-08-30T00:15:23;3.72;;;2.58;;
50757;SDS011;36732;47.980;11.652;2023-08-30T00:17:49;3.47;;;2.80;;
50757;SDS011;36732;47.980;11.652;2023-08-30T00:20:17;3.63;;;2.70;;
50757;SDS011;36732;47.980;11.652;2023-08-30T00:22:43;2.60;;;2.40;;
50757;SDS011;36732;47.980;11.652;2023-08-30T00:25:09;2.45;;;2.22;;
50757;SDS011;36732;47.980;11.652;2023-08-30T00:27:35;2.58;;;2.38;;
50757;SDS011;36732;47.980;11.652;2023-08-30T00:30:01;3.30;;;2.92;;
50757;SDS011;36732;47.980;11.652;2023-08-30T00:32:26;4.60;;;2.72;;
50757;SDS011;36732;47.980;11.652;2023-08-30T00:34:52;3.60;;;2.85;;
50757;SDS011;36732;47.980;11.652;2023-08-30T00:37:18;4.35;;;2.70;;
50757;SDS011;36732;47.980;11.652;2023-08-30T00:39:43;3.22;;;2.80;;
50757;SDS011;36732;47.980;11.652;2023-08-30T00:42:09;3.33;;;3.08;;
50757;SDS011;36732;47.980;11.652;2023-08-30T00:44:35;2.88;;;2.67;;
50757;SDS011;36732;47.980;11.652;2023-08-30T00:47:01;3.05;;;2.75;;
50757;SDS011;36732;47.980;11.652;2023-08-30T00:49:31;3.22;;;2.95;;
50757;SDS011;36732;47.980;11.652;2023-08-30T00:51:57;4.95;;;3.00;;
50757;SDS011;36732;47.980;11.652;2023-08-30T00:54:31;2.95;;;2.53;;
50757;SDS011;36732;47.980;11.652;2023-08-30T00:56:57;2.70;;;2.50;;
50757;SDS011;36732;47.980;11.652;2023-08-30T00:59:23;3.38;;;2.58;;
50757;SDS011;36732;47.980;11.652;2023-08-30T01:01:49;2.88;;;2.63;;
50757;SDS011;36732;47.980;11.652;2023-08-30T01:04:16;2.58;;;2.38;;
50757;SDS011;36732;47.980;11.652;2023-08-30T01:06:43;2.67;;;2.47;;
50757;SDS011;36732;47.980;11.652;2023-08-30T01:09:08;2.90;;;2.50;;
50757;SDS011;36732;47.980;11.652;2023-08-30T01:17:31;2.55;;;2.35;;
50757;SDS011;36732;47.980;11.652;2023-08-30T01:22:59;2.38;;;2.17;;
50757;SDS011;36732;47.980;11.652;2023-08-30T01:25:52;2.83;;;2.55;;
50757;SDS011;36732;47.980;11.652;2023-08-30T01:28:28;2.60;;;2.40;;
50757;SDS011;36732;47.980;11.652;2023-08-30T01:30:57;2.42;;;2.22;;
50757;SDS011;36732;47.980;11.652;2023-08-30T01:33:24;3.13;;;2.78;;
50757;SDS011;36732;47.980;11.652;2023-08-30T01:35:53;2.60;;;2.40;;
50757;SDS011;36732;47.980;11.652;2023-08-30T01:38:20;2.83;;;2.45;;
50757;SDS011;36732;47.980;11.652;2023-08-30T01:40:48;2.40;;;2.20;;
50757;SDS011;36732;47.980;11.652;2023-08-30T01:43:14;5.28;;;2.45;;
50757;SDS011;36732;47.980;11.652;2023-08-30T01:45:42;2.88;;;2.67;;
50757;SDS011;36732;47.980;11.652;2023-08-30T01:48:09;2.53;;;2.33;;
50757;SDS011;36732;47.980;11.652;2023-08-30T01:50:39;2.60;;;2.40;;
50757;SDS011;36732;47.980;11.652;2023-08-30T01:53:07;2.20;;;1.90;;
50757;SDS011;36732;47.980;11.652;2023-08-30T01:55:34;2.28;;;2.08;;
50757;SDS011;36732;47.980;11.652;2023-08-30T01:58:01;2.97;;;1.95;;
50757;SDS011;36732;47.980;11.652;2023-08-30T02:00:28;2.53;;;2.25;;
50757;SDS011;36732;47.980;11.652;2023-08-30T02:02:54;2.67;;;2.47;;
50757;SDS011;36732;47.980;11.652;2023-08-30T02:05:21;2.25;;;2.00;;
50757;SDS011;36732;47.980;11.652;2023-08-30T02:10:37;2.45;;;1.92;;
50757;SDS011;36732;47.980;11.652;2023-08-30T02:13:08;1.95;;;1.75;;
50757;SDS011;36732;47.980;11.652;2023-08-30T02:15:37;1.85;;;1.75;;
50757;SDS011;36732;47.980;11.652;2023-08-30T02:18:06;1.70;;;1.60;;
50757;SDS011;36732;47.980;11.652;2023-08-30T02:20:33;3.40;;;2.15;;
50757;SDS011;36732;47.980;11.652;2023-08-30T02:22:59;1.98;;;1.77;;
50757;SDS011;36732;47.980;11.652;2023-08-30T02:25:25;1.60;;;1.50;;
50757;SDS011;36732;47.980;11.652;2023-08-30T02:27:51;1.67;;;1.58;;
50757;SDS011;36732;47.980;11.652;2023-08-30T02:30:17;2.47;;;1.70;;
50757;SDS011;36732;47.980;11.652;2023-08-30T02:32:42;7.10;;;1.83;;
50757;SDS011;36732;47.980;11.652;2023-08-30T02:35:08;1.77;;;1.65;;
50757;SDS011;36732;47.980;11.652;2023-08-30T02:37:34;1.77;;;1.50;;
50757;SDS011;36732;47.980;11.652;2023-08-30T02:40:00;4.00;;;2.38;;
50757;SDS011;36732;47.980;11.652;2023-08-30T02:42:26;1.70;;;1.60;;
50757;SDS011;36732;47.980;11.652;2023-08-30T02:44:52;1.70;;;1.60;;
50757;SDS011;36732;47.980;11.652;2023-08-30T02:47:18;1.60;;;1.20;;
50757;SDS011;36732;47.980;11.652;2023-08-30T02:49:43;1.58;;;1.40;;
50757;SDS011;36732;47.980;11.652;2023-08-30T02:52:09;1.80;;;1.40;;
50757;SDS011;36732;47.980;11.652;2023-08-30T02:54:35;1.50;;;1.27;;
50757;SDS011;36732;47.980;11.652;2023-08-30T02:57:00;1.42;;;1.15;;
50757;SDS011;36732;47.980;11.652;2023-08-30T02:59:26;1.80;;;1.30;;
50757;SDS011;36732;47.980;11.652;2023-08-30T03:01:52;2.35;;;1.20;;
50757;SDS011;36732;47.980;11.652;2023-08-30T03:04:18;1.20;;;1.10;;
50757;SDS011;36732;47.980;11.652;2023-08-30T03:06:43;3.30;;;1.08;;
50757;SDS011;36732;47.980;11.652;2023-08-30T03:09:09;1.20;;;1.10;;
50757;SDS011;36732;47.980;11.652;2023-08-30T03:11:35;1.50;;;1.00;;
50757;SDS011;36732;47.980;11.652;2023-08-30T03:14:00;6.35;;;1.50;;
50757;SDS011;36732;47.980;11.652;2023-08-30T03:16:26;2.17;;;0.82;;
50757;SDS011;36732;47.980;11.652;2023-08-30T03:18:52;0.80;;;0.80;;
50757;SDS011;36732;47.980;11.652;2023-08-30T03:21:18;0.95;;;0.85;;
50757;SDS011;36732;47.980;11.652;2023-08-30T03:23:44;0.77;;;0.63;;
50757;SDS011;36732;47.980;11.652;2023-08-30T03:26:10;0.95;;;0.85;;
50757;SDS011;36732;47.980;11.652;2023-08-30T03:28:38;0.88;;;0.80;;
50757;SDS011;36732;47.980;11.652;2023-08-30T03:33:40;0.70;;;0.60;;
50757;SDS011;36732;47.980;11.652;2023-08-30T03:36:11;0.93;;;0.82;;
50757;SDS011;36732;47.980;11.652;2023-08-30T03:38:39;1.00;;;1.00;;
50757;SDS011;36732;47.980;11.652;2023-08-30T03:41:06;0.70;;;0.70;;
50757;SDS011;36732;47.980;11.652;2023-08-30T03:43:32;0.88;;;0.82;;
50757;SDS011;36732;47.980;11.652;2023-08-30T03:45:58;2.90;;;1.00;;
50757;SDS011;36732;47.980;11.652;2023-08-30T03:48:25;0.85;;;0.85;;
50757;SDS011;36732;47.980;11.652;2023-08-30T03:50:52;0.80;;;0.73;;
50757;SDS011;36732;47.980;11.652;2023-08-30T03:53:18;1.65;;;0.60;;
50757;SDS011;36732;47.980;11.652;2023-08-30T03:55:44;0.57;;;0.57;;
50757;SDS011;36732;47.980;11.652;2023-08-30T03:58:10;2.45;;;0.70;;
50757;SDS011;36732;47.980;11.652;2023-08-30T04:00:36;0.85;;;0.80;;
50757;SDS011;36732;47.980;11.652;2023-08-30T04:03:03;1.45;;;0.77;;
50757;SDS011;36732;47.980;11.652;2023-08-30T04:05:32;1.20;;;0.80;;
50757;SDS011;36732;47.980;11.652;2023-08-30T04:07:59;1.02;;;0.85;;
50757;SDS011;36732;47.980;11.652;2023-08-30T04:10:27;0.98;;;0.80;;
50757;SDS011;36732;47.980;11.652;2023-08-30T04:12:52;0.90;;;0.73;;
50757;SDS011;36732;47.980;11.652;2023-08-30T04:15:18;1.05;;;0.70;;
50757;SDS011;36732;47.980;11.652;2023-08-30T04:17:44;0.80;;;0.80;;
50757;SDS011;36732;47.980;11.652;2023-08-30T04:20:10;0.70;;;0.60;;
50757;SDS011;36732;47.980;11.652;2023-08-30T04:22:36;0.93;;;0.75;;
50757;SDS011;36732;47.980;11.652;2023-08-30T04:25:03;3.03;;;0.80;;
50757;SDS011;36732;47.980;11.652;2023-08-30T04:27:29;1.02;;;0.68;;
50757;SDS011;36732;47.980;11.652;2023-08-30T04:29:55;1.17;;;0.90;;
50757;SDS011;36732;47.980;11.652;2023-08-30T04:32:21;0.68;;;0.60;;
50757;SDS011;36732;47.980;11.652;2023-08-30T04:34:47;1.70;;;0.80;;
50757;SDS011;36732;47.980;11.652;2023-08-30T04:37:13;0.80;;;0.80;;
50757;SDS011;36732;47.980;11.652;2023-08-30T04:39:39;1.00;;;0.90;;
50757;SDS011;36732;47.980;11.652;2023-08-30T04:42:05;0.70;;;0.70;;
50757;SDS011;36732;47.980;11.652;2023-08-30T04:44:31;0.60;;;0.50;;
50757;SDS011;36732;47.980;11.652;2023-08-30T04:46:57;1.10;;;0.80;;
50757;SDS011;36732;47.980;11.652;2023-08-30T04:49:23;0.90;;;0.90;;
50757;SDS011;36732;47.980;11.652;2023-08-30T04:51:52;1.90;;;0.68;;
50757;SDS011;36732;47.980;11.652;2023-08-30T04:54:17;0.80;;;0.80;;
50757;SDS011;36732;47.980;11.652;2023-08-30T04:56:43;1.25;;;0.68;;
50757;SDS011;36732;47.980;11.652;2023-08-30T04:59:09;1.38;;;0.95;;
50757;SDS011;36732;47.980;11.652;2023-08-30T05:01:35;1.23;;;0.88;;
50757;SDS011;36732;47.980;11.652;2023-08-30T05:04:00;1.00;;;0.70;;
50757;SDS011;36732;47.980;11.652;2023-08-30T05:06:27;0.90;;;0.63;;
50757;SDS011;36732;47.980;11.652;2023-08-30T05:08:52;2.15;;;0.80;;
50757;SDS011;36732;47.980;11.652;2023-08-30T05:11:18;0.80;;;0.77;;
50757;SDS011;36732;47.980;11.652;2023-08-30T05:13:44;1.45;;;0.73;;
50757;SDS011;36732;47.980;11.652;2023-08-30T05:16:09;0.70;;;0.70;;
50757;SDS011;36732;47.980;11.652;2023-08-30T05:18:35;1.15;;;0.60;;
50757;SDS011;36732;47.980;11.652;2023-08-30T05:21:01;0.98;;;0.88;;
50757;SDS011;36732;47.980;11.652;2023-08-30T05:23:28;0.73;;;0.60;;
50757;SDS011;36732;47.980;11.652;2023-08-30T05:25:54;0.90;;;0.80;;
50757;SDS011;36732;47.980;11.652;2023-08-30T05:28:20;0.70;;;0.70;;
50757;SDS011;36732;47.980;11.652;2023-08-30T05:30:45;1.10;;;0.70;;
50757;SDS011;36732;47.980;11.652;2023-08-30T05:33:11;0.70;;;0.70;;
50757;SDS011;36732;47.980;11.652;2023-08-30T05:35:37;4.07;;;0.80;;
50757;SDS011;36732;47.980;11.652;2023-08-30T05:38:03;0.70;;;0.70;;
50757;SDS011;36732;47.980;11.652;2023-08-30T05:40:28;0.90;;;0.80;;
50757;SDS011;36732;47.980;11.652;2023-08-30T05:42:54;0.65;;;0.65;;
50757;SDS011;36732;47.980;11.652;2023-08-30T05:45:20;0.95;;;0.80;;
50757;SDS011;36732;47.980;11.652;2023-08-30T05:47:46;0.70;;;0.63;;
50757;SDS011;36732;47.980;11.652;2023-08-30T05:50:12;0.88;;;0.70;;
50757;SDS011;36732;47.980;11.652;2023-08-30T05:52:38;0.93;;;0.70;;
50757;SDS011;36732;47.980;11.652;2023-08-30T05:55:06;0.77;;;0.63;;
50757;SDS011;36732;47.980;11.652;2023-08-30T05:57:34;0.63;;;0.63;;
50757;SDS011;36732;47.980;11.652;2023-08-30T06:00:00;1.23;;;0.77;;
50757;SDS011;36732;47.980;11.652;2023-08-30T06:02:27;0.75;;;0.75;;
50757;SDS011;36732;47.980;11.652;2023-08-30T06:04:52;0.73;;;0.70;;
50757;SDS011;36732;47.980;11.652;2023-08-30T06:07:18;0.90;;;0.80;;
50757;SDS011;36732;47.980;11.652;2023-08-30T06:09:44;0.90;;;0.80;;
50757;SDS011;36732;47.980;11.652;2023-08-30T06:12:10;0.88;;;0.80;;
50757;SDS011;36732;47.980;11.652;2023-08-30T06:14:35;1.63;;;0.90;;
50757;SDS011;36732;47.980;11.652;2023-08-30T06:17:01;0.63;;;0.63;;
50757;SDS011;36732;47.980;11.652;2023-08-30T06:19:27;1.13;;;0.93;;
50757;SDS011;36732;47.980;11.652;2023-08-30T06:21:53;1.23;;;0.95;;
50757;SDS011;36732;47.980;11.652;2023-08-30T06:24:18;1.02;;;0.93;;
50757;SDS011;36732;47.980;11.652;2023-08-30T06:26:44;0.95;;;0.85;;
50757;SDS011;36732;47.980;11.652;2023-08-30T06:29:10;0.73;;;0.68;;
50757;SDS011;36732;47.980;11.652;2023-08-30T06:31:36;1.15;;;1.05;;
50757;SDS011;36732;47.980;11.652;2023-08-30T06:34:02;1.27;;;1.17;;
50757;SDS011;36732;47.980;11.652;2023-08-30T06:36:27;1.23;;;1.10;;
50757;SDS011;36732;47.980;11.652;2023-08-30T06:38:53;1.05;;;0.95;;
50757;SDS011;36732;47.980;11.652;2023-08-30T06:41:19;1.48;;;1.02;;
50757;SDS011;36732;47.980;11.652;2023-08-30T06:43:45;0.80;;;0.80;;
50757;SDS011;36732;47.980;11.652;2023-08-30T06:46:11;1.40;;;0.95;;
50757;SDS011;36732;47.980;11.652;2023-08-30T06:48:36;0.93;;;0.93;;
50757;SDS011;36732;47.980;11.652;2023-08-30T06:51:02;1.67;;;0.93;;
50757;SDS011;36732;47.980;11.652;2023-08-30T06:53:28;1.10;;;1.00;;
50757;SDS011;36732;47.980;11.652;2023-08-30T06:55:58;2.25;;;0.90;;
50757;SDS011;36732;47.980;11.652;2023-08-30T06:58:25;0.85;;;0.85;;
50757;SDS011;36732;47.980;11.652;2023-08-30T07:00:51;1.15;;;0.68;;
50757;SDS011;36732;47.980;11.652;2023-08-30T07:03:17;1.08;;;0.88;;
50757;SDS011;36732;47.980;11.652;2023-08-30T07:05:43;0.80;;;0.70;;
50757;SDS011;36732;47.980;11.652;2023-08-30T07:08:09;1.08;;;0.98;;
50757;SDS011;36732;47.980;11.652;2023-08-30T07:10:34;0.90;;;0.85;;
50757;SDS011;36732;47.980;11.652;2023-08-30T07:13:00;1.45;;;1.10;;
50757;SDS011;36732;47.980;11.652;2023-08-30T07:15:26;0.88;;;0.88;;
50757;SDS011;36732;47.980;11.652;2023-08-30T07:17:53;1.30;;;0.90;;
50757;SDS011;36732;47.980;11.652;2023-08-30T07:20:19;1.45;;;1.15;;
50757;SDS011;36732;47.980;11.652;2023-08-30T07:22:44;1.20;;;1.10;;
50757;SDS011;36732;47.980;11.652;2023-08-30T07:25:10;1.15;;;0.95;;
50757;SDS011;36732;47.980;11.652;2023-08-30T07:27:37;1.10;;;1.00;;
50757;SDS011;36732;47.980;11.652;2023-08-30T07:30:03;1.20;;;1.10;;
50757;SDS011;36732;47.980;11.652;2023-08-30T07:32:30;1.50;;;1.30;;
50757;SDS011;36732;47.980;11.652;2023-08-30T07:34:56;1.40;;;1.30;;
50757;SDS011;36732;47.980;11.652;2023-08-30T07:37:21;2.65;;;1.30;;
50757;SDS011;36732;47.980;11.652;2023-08-30T07:39:47;1.10;;;1.00;;
50757;SDS011;36732;47.980;11.652;2023-08-30T07:42:13;1.65;;;1.05;;
50757;SDS011;36732;47.980;11.652;2023-08-30T07:44:40;1.42;;;1.20;;
50757;SDS011;36732;47.980;11.652;2023-08-30T07:47:06;1.40;;;1.30;;
50757;SDS011;36732;47.980;11.652;2023-08-30T07:49:31;1.65;;;1.50;;
50757;SDS011;36732;47.980;11.652;2023-08-30T07:51:57;1.40;;;1.30;;
50757;SDS011;36732;47.980;11.652;2023-08-30T07:54:23;1.25;;;1.15;;
50757;SDS011;36732;47.980;11.652;2023-08-30T07:56:48;1.88;;;1.10;;
50757;SDS011;36732;47.980;11.652;2023-08-30T07:59:14;1.92;;;1.73;;
50757;SDS011;36732;47.980;11.652;2023-08-30T08:01:40;2.00;;;1.45;;
50757;SDS011;36732;47.980;11.652;2023-08-30T08:04:06;1.55;;;1.45;;
50757;SDS011;36732;47.980;11.652;2023-08-30T08:06:31;1.80;;;1.70;;
50757;SDS011;36732;47.980;11.652;2023-08-30T08:08:57;1.40;;;1.30;;
50757;SDS011;36732;47.980;11.652;2023-08-30T08:11:23;1.48;;;1.38;;
50757;SDS011;36732;47.980;11.652;2023-08-30T08:13:48;1.58;;;1.25;;
50757;SDS011;36732;47.980;11.652;2023-08-30T08:16:14;1.88;;;1.42;;
50757;SDS011;36732;47.980;11.652;2023-08-30T08:18:40;1.70;;;1.45;;
50757;SDS011;36732;47.980;11.652;2023-08-30T08:21:06;0.90;;;0.90;;
50757;SDS011;36732;47.980;11.652;2023-08-30T08:23:32;1.05;;;0.95;;
50757;SDS011;36732;47.980;11.652;2023-08-30T08:26:00;1.45;;;1.25;;
50757;SDS011;36732;47.980;11.652;2023-08-30T08:28:27;2.22;;;1.48;;
50757;SDS011;36732;47.980;11.652;2023-08-30T08:30:53;1.52;;;1.25;;
50757;SDS011;36732;47.980;11.652;2023-08-30T08:33:20;1.42;;;1.33;;
50757;SDS011;36732;47.980;11.652;2023-08-30T08:35:48;1.50;;;1.40;;
50757;SDS011;36732;47.980;11.652;2023-08-30T08:38:14;2.83;;;1.50;;
50757;SDS011;36732;47.980;11.652;2023-08-30T08:40:40;1.30;;;1.10;;
50757;SDS011;36732;47.980;11.652;2023-08-30T08:43:06;1.88;;;1.20;;
50757;SDS011;36732;47.980;11.652;2023-08-30T08:45:35;1.70;;;1.60;;
50757;SDS011;36732;47.980;11.652;2023-08-30T08:48:04;1.50;;;1.35;;
50757;SDS011;36732;47.980;11.652;2023-08-30T08:50:34;1.42;;;1.30;;
50757;SDS011;36732;47.980;11.652;2023-08-30T08:53:03;1.63;;;1.45;;
50757;SDS011;36732;47.980;11.652;2023-08-30T08:55:29;1.40;;;1.30;;
50757;SDS011;36732;47.980;11.652;2023-08-30T08:57:56;1.45;;;1.35;;
50757;SDS011;36732;47.980;11.652;2023-08-30T09:00:24;1.70;;;1.30;;
50757;SDS011;36732;47.980;11.652;2023-08-30T09:02:50;1.50;;;1.40;;
50757;SDS011;36732;47.980;11.652;2023-08-30T09:05:17;2.42;;;1.60;;
50757;SDS011;36732;47.980;11.652;2023-08-30T09:07:44;1.40;;;1.30;;
50757;SDS011;36732;47.980;11.652;2023-08-30T09:10:10;1.45;;;1.35;;
50757;SDS011;36732;47.980;11.652;2023-08-30T09:12:36;1.52;;;1.42;;
50757;SDS011;36732;47.980;11.652;2023-08-30T09:15:02;1.77;;;1.67;;
50757;SDS011;36732;47.980;11.652;2023-08-30T09:17:38;1.70;;;1.60;;
50757;SDS011;36732;47.980;11.652;2023-08-30T09:20:08;1.85;;;1.63;;
50757;SDS011;36732;47.980;11.652;2023-08-30T09:22:36;1.50;;;1.40;;
50757;SDS011;36732;47.980;11.652;2023-08-30T09:25:03;1.92;;;1.70;;
50757;SDS011;36732;47.980;11.652;2023-08-30T09:27:33;2.00;;;1.80;;
50757;SDS011;36732;47.980;11.652;2023-08-30T09:29:59;2.75;;;2.00;;
50757;SDS011;36732;47.980;11.652;2023-08-30T09:32:25;2.60;;;2.40;;
50757;SDS011;36732;47.980;11.652;2023-08-30T09:34:51;3.28;;;2.20;;
50757;SDS011;36732;47.980;11.652;2023-08-30T09:37:23;2.10;;;1.90;;
50757;SDS011;36732;47.980;11.652;2023-08-30T09:39:51;2.05;;;1.83;;
50757;SDS011;36732;47.980;11.652;2023-08-30T09:42:17;2.47;;;1.70;;
50757;SDS011;36732;47.980;11.652;2023-08-30T09:44:44;2.28;;;2.08;;
50757;SDS011;36732;47.980;11.652;2023-08-30T09:47:09;2.30;;;2.10;;
50757;SDS011;36732;47.980;11.652;2023-08-30T09:49:42;2.40;;;2.20;;
50757;SDS011;36732;47.980;11.652;2023-08-30T09:52:09;2.25;;;2.05;;
50757;SDS011;36732;47.980;11.652;2023-08-30T09:54:35;3.35;;;2.47;;
50757;SDS011;36732;47.980;11.652;2023-08-30T09:57:06;3.33;;;2.10;;
50757;SDS011;36732;47.980;11.652;2023-08-30T09:59:32;4.45;;;2.63;;
50757;SDS011;36732;47.980;11.652;2023-08-30T10:01:58;3.40;;;2.42;;
50757;SDS011;36732;47.980;11.652;2023-08-30T10:04:25;2.28;;;2.08;;
50757;SDS011;36732;47.980;11.652;2023-08-30T10:06:52;2.50;;;2.30;;
50757;SDS011;36732;47.980;11.652;2023-08-30T10:09:22;2.00;;;1.83;;
50757;SDS011;36732;47.980;11.652;2023-08-30T10:11:51;3.03;;;2.72;;
50757;SDS011;36732;47.980;11.652;2023-08-30T10:14:18;4.68;;;2.72;;
50757;SDS011;36732;47.980;11.652;2023-08-30T10:16:47;8.80;;;2.50;;
50757;SDS011;36732;47.980;11.652;2023-08-30T10:19:14;2.70;;;2.50;;
50757;SDS011;36732;47.980;11.652;2023-08-30T10:22:01;2.80;;;2.35;;
50757;SDS011;36732;47.980;11.652;2023-08-30T10:25:14;2.60;;;2.40;;
50757;SDS011;36732;47.980;11.652;2023-08-30T10:27:35;3.20;;;2.63;;
50757;SDS011;36732;47.980;11.652;2023-08-30T10:30:05;2.53;;;2.33;;
50757;SDS011;36732;47.980;11.652;2023-08-30T10:32:38;3.13;;;2.70;;
50757;SDS011;36732;47.980;11.652;2023-08-30T10:35:11;4.05;;;3.10;;
50757;SDS011;36732;47.980;11.652;2023-08-30T10:37:39;3.25;;;2.95;;
50757;SDS011;36732;47.980;11.652;2023-08-30T10:40:05;3.17;;;2.60;;
50757;SDS011;36732;47.980;11.652;2023-08-30T10:42:32;3.03;;;2.63;;
50757;SDS011;36732;47.980;11.652;2023-08-30T10:44:59;3.00;;;2.72;;
50757;SDS011;36732;47.980;11.652;2023-08-30T10:47:36;2.35;;;2.15;;
50757;SDS011;36732;47.980;11.652;2023-08-30T10:50:09;2.17;;;1.95;;
50757;SDS011;36732;47.980;11.652;2023-08-30T10:52:37;2.85;;;1.90;;
50757;SDS011;36732;47.980;11.652;2023-08-30T10:57:35;2.30;;;2.10;;
50757;SDS011;36732;47.980;11.652;2023-08-30T11:02:43;1.73;;;1.52;;
50757;SDS011;36732;47.980;11.652;2023-08-30T11:05:13;1.60;;;1.50;;
50757;SDS011;36732;47.980;11.652;2023-08-30T11:07:42;1.92;;;1.83;;
50757;SDS011;36732;47.980;11.652;2023-08-30T11:10:11;2.28;;;1.70;;
50757;SDS011;36732;47.980;11.652;2023-08-30T11:12:41;1.77;;;1.50;;
50757;SDS011;36732;47.980;11.652;2023-08-30T11:15:11;2.33;;;1.50;;
50757;SDS011;36732;47.980;11.652;2023-08-30T11:17:39;1.85;;;1.63;;
50757;SDS011;36732;47.980;11.652;2023-08-30T11:20:15;1.42;;;1.33;;
50757;SDS011;36732;47.980;11.652;2023-08-30T11:22:46;2.25;;;1.45;;
50757;SDS011;36732;47.980;11.652;2023-08-30T11:25:13;1.30;;;1.20;;
50757;SDS011;36732;47.980;11.652;2023-08-30T11:27:40;1.77;;;1.30;;
50757;SDS011;36732;47.980;11.652;2023-08-30T11:30:07;1.55;;;1.20;;
50757;SDS011;36732;47.980;11.652;2023-08-30T11:32:35;2.67;;;1.02;;
50757;SDS011;36732;47.980;11.652;2023-08-30T11:35:05;2.72;;;1.30;;
50757;SDS011;36732;47.980;11.652;2023-08-30T11:37:32;1.85;;;1.00;;
50757;SDS011;36732;47.980;11.652;2023-08-30T11:39:58;1.80;;;1.10;;
50757;SDS011;36732;47.980;11.652;2023-08-30T11:42:25;1.00;;;0.90;;
50757;SDS011;36732;47.980;11.652;2023-08-30T11:44:51;0.70;;;0.70;;
50757;SDS011;36732;47.980;11.652;2023-08-30T11:47:20;2.15;;;0.80;;
50757;SDS011;36732;47.980;11.652;2023-08-30T11:49:48;1.75;;;1.10;;
50757;SDS011;36732;47.980;11.652;2023-08-30T11:52:16;2.10;;;1.10;;
50757;SDS011;36732;47.980;11.652;2023-08-30T11:54:42;0.77;;;0.70;;
50757;SDS011;36732;47.980;11.652;2023-08-30T11:57:09;1.30;;;0.82;;
50757;SDS011;36732;47.980;11.652;2023-08-30T11:59:35;0.98;;;0.82;;
50757;SDS011;36732;47.980;11.652;2023-08-30T12:02:01;1.23;;;1.08;;
50757;SDS011;36732;47.980;11.652;2023-08-30T12:04:28;0.82;;;0.82;;
50757;SDS011;36732;47.980;11.652;2023-08-30T12:06:55;1.10;;;0.85;;
50757;SDS011;36732;47.980;11.652;2023-08-30T12:09:21;1.08;;;0.98;;
50757;SDS011;36732;47.980;11.652;2023-08-30T12:11:50;0.90;;;0.90;;
50757;SDS011;36732;47.980;11.652;2023-08-30T12:14:16;1.38;;;0.85;;
50757;SDS011;36732;47.980;11.652;2023-08-30T12:16:42;1.35;;;0.60;;
50757;SDS011;36732;47.980;11.652;2023-08-30T12:19:10;0.80;;;0.70;;
50757;SDS011;36732;47.980;11.652;2023-08-30T12:21:41;0.93;;;0.80;;
50757;SDS011;36732;47.980;11.652;2023-08-30T12:24:07;0.77;;;0.77;;
50757;SDS011;36732;47.980;11.652;2023-08-30T12:26:34;1.17;;;0.80;;
50757;SDS011;36732;47.980;11.652;2023-08-30T12:29:00;1.65;;;0.95;;
50757;SDS011;36732;47.980;11.652;2023-08-30T12:31:26;0.93;;;0.82;;
50757;SDS011;36732;47.980;11.652;2023-08-30T12:33:53;1.08;;;0.77;;
50757;SDS011;36732;47.980;11.652;2023-08-30T12:36:19;1.20;;;1.00;;
50757;SDS011;36732;47.980;11.652;2023-08-30T12:38:45;2.88;;;1.20;;
50757;SDS011;36732;47.980;11.652;2023-08-30T12:41:11;1.00;;;0.82;;
50757;SDS011;36732;47.980;11.652;2023-08-30T12:43:37;0.93;;;0.88;;
50757;SDS011;36732;47.980;11.652;2023-08-30T12:46:03;0.90;;;0.80;;
50757;SDS011;36732;47.980;11.652;2023-08-30T12:48:29;0.93;;;0.80;;
50757;SDS011;36732;47.980;11.652;2023-08-30T12:50:55;1.20;;;0.80;;
50757;SDS011;36732;47.980;11.652;2023-08-30T12:53:21;1.15;;;0.90;;
50757;SDS011;36732;47.980;11.652;2023-08-30T12:55:47;1.25;;;0.85;;
50757;SDS011;36732;47.980;11.652;2023-08-30T12:58:12;1.35;;;0.88;;
50757;SDS011;36732;47.980;11.652;2023-08-30T13:00:39;1.42;;;0.77;;
50757;SDS011;36732;47.980;11.652;2023-08-30T13:03:05;1.95;;;0.98;;
50757;SDS011;36732;47.980;11.652;2023-08-30T13:05:31;1.05;;;0.95;;
50757;SDS011;36732;47.980;11.652;2023-08-30T13:07:58;0.90;;;0.90;;
50757;SDS011;36732;47.980;11.652;2023-08-30T13:10:24;0.85;;;0.82;;
50757;SDS011;36732;47.980;11.652;2023-08-30T13:12:50;1.23;;;0.80;;
50757;SDS011;36732;47.980;11.652;2023-08-30T13:15:16;0.82;;;0.70;;
50757;SDS011;36732;47.980;11.652;2023-08-30T13:17:42;3.03;;;1.05;;
50757;SDS011;36732;47.980;11.652;2023-08-30T13:20:08;2.28;;;0.77;;
50757;SDS011;36732;47.980;11.652;2023-08-30T13:22:34;1.00;;;0.90;;
50757;SDS011;36732;47.980;11.652;2023-08-30T13:25:01;0.93;;;0.68;;
50757;SDS011;36732;47.980;11.652;2023-08-30T13:27:28;0.80;;;0.65;;
50757;SDS011;36732;47.980;11.652;2023-08-30T13:29:55;1.50;;;0.70;;
50757;SDS011;36732;47.980;11.652;2023-08-30T13:32:20;1.33;;;0.80;;
50757;SDS011;36732;47.980;11.652;2023-08-30T13:34:46;0.47;;;0.47;;
50757;SDS011;36732;47.980;11.652;2023-08-30T13:37:12;0.60;;;0.60;;
50757;SDS011;36732;47.980;11.652;2023-08-30T13:39:39;1.17;;;0.60;;
50757;SDS011;36732;47.980;11.652;2023-08-30T13:42:05;1.58;;;0.60;;
50757;SDS011;36732;47.980;11.652;2023-08-30T13:44:31;1.45;;;0.80;;
50757;SDS011;36732;47.980;11.652;2023-08-30T13:47:02;0.70;;;0.60;;
50757;SDS011;36732;47.980;11.652;2023-08-30T13:49:29;0.60;;;0.60;;
50757;SDS011;36732;47.980;11.652;2023-08-30T13:51:55;0.65;;;0.63;;
50757;SDS011;36732;47.980;11.652;2023-08-30T13:54:21;1.00;;;0.70;;
50757;SDS011;36732;47.980;11.652;2023-08-30T13:56:47;1.13;;;1.02;;
50757;SDS011;36732;47.980;11.652;2023-08-30T13:59:13;1.00;;;0.50;;
50757;SDS011;36732;47.980;11.652;2023-08-30T14:01:39;0.90;;;0.80;;
50757;SDS011;36732;47.980;11.652;2023-08-30T14:04:05;5.13;;;1.20;;
50757;SDS011;36732;47.980;11.652;2023-08-30T14:06:31;0.60;;;0.60;;
50757;SDS011;36732;47.980;11.652;2023-08-30T14:08:57;0.60;;;0.60;;
50757;SDS011;36732;47.980;11.652;2023-08-30T14:11:23;0.75;;;0.70;;
50757;SDS011;36732;47.980;11.652;2023-08-30T14:13:49;2.03;;;1.08;;
50757;SDS011;36732;47.980;11.652;2023-08-30T14:16:15;1.08;;;0.88;;
50757;SDS011;36732;47.980;11.652;2023-08-30T14:18:40;0.57;;;0.55;;
50757;SDS011;36732;47.980;11.652;2023-08-30T14:21:08;0.70;;;0.70;;
50757;SDS011;36732;47.980;11.652;2023-08-30T14:23:34;1.45;;;0.60;;
50757;SDS011;36732;47.980;11.652;2023-08-30T14:26:04;1.50;;;1.17;;
50757;SDS011;36732;47.980;11.652;2023-08-30T14:28:38;0.90;;;0.70;;
50757;SDS011;36732;47.980;11.652;2023-08-30T14:31:11;1.80;;;0.70;;
50757;SDS011;36732;47.980;11.652;2023-08-30T14:33:37;0.77;;;0.70;;
50757;SDS011;36732;47.980;11.652;2023-08-30T14:36:10;1.35;;;0.80;;
50757;SDS011;36732;47.980;11.652;2023-08-30T14:38:36;1.58;;;0.80;;
50757;SDS011;36732;47.980;11.652;2023-08-30T14:41:03;3.88;;;0.85;;
50757;SDS011;36732;47.980;11.652;2023-08-30T14:43:29;1.02;;;0.80;;
50757;SDS011;36732;47.980;11.652;2023-08-30T14:48:27;2.03;;;0.80;;
50757;SDS011;36732;47.980;11.652;2023-08-30T14:50:54;1.15;;;1.00;;
50757;SDS011;36732;47.980;11.652;2023-08-30T14:53:19;0.80;;;0.80;;